Time;durP1;ratioP1;P1;durP2;ratioP2;P2;SDS_P1;SDS_P2;PMS_P1;PMS_P2;Temp;Humidity;BMP_temperature;BMP_pressure;BME280_temperature;BME280_humidity;BME280_pressure;Samples;Min_cycle;Max_cycle;Signal;HPM_P1;HPM_P2
2023/01/11 00:00:10;;;;;;;5.17;4.00;;;;;;;;;;4944834;28;20209;-79
2023/01/11 00:02:36;;;;;;;6.57;4.00;;;;;;;;;;4944108;28;20221;-79
2023/01/11 00:05:02;;;;;;;5.87;3.93;;;;;;;;;;4944265;28;20214;-81
2023/01/11 00:07:29;;;;;;;4.63;3.73;;;;;;;;;;4944200;28;20183;-81
2023/01/11 00:09:55;;;;;;;4.83;4.00;;;;;;;;;;4947994;28;20199;-81
2023/01/11 00:12:21;;;;;;;8.90;4.13;;;;;;;;;;4960397;28;20203;-81
2023/01/11 00:14:47;;;;;;;4.57;4.17;;;;;;;;;;4977020;28;20175;-81
2023/01/11 00:17:13;;;;;;;7.37;4.23;;;;;;;;;;4944048;28;20179;-82
2023/01/11 00:19:39;;;;;;;6.30;3.83;;;;;;;;;;4959737;28;20250;-81
2023/01/11 00:22:05;;;;;;;5.03;4.13;;;;;;;;;;4959880;28;20221;-82
2023/01/11 00:24:31;;;;;;;5.73;4.20;;;;;;;;;;4959929;28;20182;-81
2023/01/11 00:26:57;;;;;;;8.00;4.10;;;;;;;;;;4944224;28;20194;-82
2023/01/11 00:29:23;;;;;;;5.03;4.20;;;;;;;;;;4959777;28;20208;-82
2023/01/11 00:31:49;;;;;;;5.67;3.73;;;;;;;;;;4959493;28;20246;-81
2023/01/11 00:34:15;;;;;;;7.47;4.50;;;;;;;;;;4943780;28;20273;-82
2023/01/11 00:36:41;;;;;;;6.17;4.30;;;;;;;;;;4943389;28;20351;-78
2023/01/11 00:39:07;;;;;;;5.50;4.20;;;;;;;;;;4959007;28;20218;-79
2023/01/11 00:49:46;;;;;;;7.07;3.70;;;;;;;;;;4961900;28;20242;-79
2023/01/11 00:52:12;;;;;;;8.47;4.20;;;;;;;;;;4975248;28;20187;-79
2023/01/11 00:54:39;;;;;;;4.53;3.93;;;;;;;;;;4942934;28;20220;-79
2023/01/11 00:57:06;;;;;;;7.17;4.10;;;;;;;;;;4959017;28;20191;-78
2023/01/11 00:59:32;;;;;;;3.97;3.33;;;;;;;;;;4958491;28;20221;-78
2023/01/11 01:01:59;;;;;;;6.17;4.00;;;;;;;;;;4959129;28;20203;-79
2023/01/11 01:04:26;;;;;;;6.13;4.17;;;;;;;;;;4943154;28;20190;-79
2023/01/11 01:06:52;;;;;;;4.87;3.73;;;;;;;;;;4959487;28;20182;-78
2023/01/11 01:09:18;;;;;;;8.87;4.10;;;;;;;;;;4958325;28;20206;-84
2023/01/11 01:11:44;;;;;;;4.57;3.70;;;;;;;;;;4941526;28;20277;-78
2023/01/11 01:14:27;;;;;;;8.30;4.33;;;;;;;;;;4971518;28;20221;-79
2023/01/11 01:17:02;;;;;;;6.33;4.40;;;;;;;;;;4974703;28;20270;-78
2023/01/11 01:19:33;;;;;;;6.70;4.30;;;;;;;;;;4950715;28;20194;-78
2023/01/11 01:21:59;;;;;;;5.93;4.23;;;;;;;;;;4958687;28;20273;-84
2023/01/11 01:24:29;;;;;;;6.07;4.00;;;;;;;;;;4933509;29;20199;-85
2023/01/11 01:26:56;;;;;;;7.30;4.27;;;;;;;;;;4942189;28;20186;-78
2023/01/11 01:29:22;;;;;;;5.23;3.80;;;;;;;;;;4951540;28;20193;-79
2023/01/11 01:31:48;;;;;;;6.40;4.00;;;;;;;;;;4968944;28;20179;-79
2023/01/11 01:34:14;;;;;;;6.10;4.03;;;;;;;;;;4940427;28;20202;-79
2023/01/11 01:36:40;;;;;;;6.73;4.03;;;;;;;;;;4949115;28;20233;-79
2023/01/11 01:39:06;;;;;;;5.90;3.93;;;;;;;;;;4924070;29;20301;-79
2023/01/11 01:41:33;;;;;;;4.77;3.90;;;;;;;;;;4944249;29;20180;-79
2023/01/11 01:44:01;;;;;;;8.10;4.10;;;;;;;;;;4942025;28;20185;-78
2023/01/11 01:46:28;;;;;;;5.90;3.83;;;;;;;;;;4955496;28;20273;-78
2023/01/11 01:48:58;;;;;;;5.20;3.57;;;;;;;;;;4951236;28;20193;-78
2023/01/11 01:51:26;;;;;;;7.77;4.10;;;;;;;;;;4939054;29;20246;-78
2023/01/11 01:53:54;;;;;;;5.10;4.03;;;;;;;;;;4948389;28;20210;-78
2023/01/11 01:56:23;;;;;;;4.23;3.83;;;;;;;;;;4950331;28;20199;-78
2023/01/11 01:58:51;;;;;;;6.30;4.27;;;;;;;;;;4958329;28;20206;-78
2023/01/11 02:04:04;;;;;;;4.50;3.77;;;;;;;;;;4961697;28;20194;-78
2023/01/11 02:06:31;;;;;;;4.80;4.23;;;;;;;;;;4958685;28;20183;-79
2023/01/11 02:09:00;;;;;;;5.40;4.13;;;;;;;;;;4942842;28;20186;-78
2023/01/11 02:11:30;;;;;;;5.43;3.60;;;;;;;;;;4958290;28;20281;-78
2023/01/11 02:14:03;;;;;;;4.33;3.50;;;;;;;;;;4930503;29;20191;-81
2023/01/11 02:16:29;;;;;;;4.23;3.63;;;;;;;;;;4940232;28;20237;-79
2023/01/11 02:18:56;;;;;;;4.03;3.10;;;;;;;;;;4957677;28;20214;-79
2023/01/11 02:21:28;;;;;;;4.77;3.20;;;;;;;;;;4975186;28;20194;-78
2023/01/11 02:23:54;;;;;;;5.23;3.40;;;;;;;;;;4974610;28;20183;-78
2023/01/11 02:26:39;;;;;;;3.27;2.93;;;;;;;;;;4972056;28;20191;-82
2023/01/11 02:29:24;;;;;;;3.23;3.00;;;;;;;;;;4944272;28;20325;-80
2023/01/11 02:32:02;;;;;;;4.00;3.00;;;;;;;;;;4950976;28;20261;-80
2023/01/11 02:34:34;;;;;;;3.30;3.00;;;;;;;;;;4957385;28;20189;-78
2023/01/11 02:37:12;;;;;;;3.30;3.00;;;;;;;;;;4958647;28;20297;-78
2023/01/11 02:40:11;;;;;;;3.80;2.93;;;;;;;;;;4942526;29;20271;-79
2023/01/11 02:46:00;;;;;;;3.30;3.00;;;;;;;;;;4971182;28;20197;-79
2023/01/11 02:48:34;;;;;;;5.13;2.97;;;;;;;;;;4949315;28;20196;-79
2023/01/11 02:51:05;;;;;;;3.23;2.93;;;;;;;;;;4951641;28;20201;-80
2023/01/11 02:53:43;;;;;;;3.57;2.70;;;;;;;;;;4978538;28;20214;-81
2023/01/11 02:56:15;;;;;;;3.20;2.90;;;;;;;;;;4961580;28;20276;-81
2023/01/11 02:58:46;;;;;;;3.07;2.80;;;;;;;;;;4961379;28;20214;-80
2023/01/11 03:01:12;;;;;;;4.27;2.83;;;;;;;;;;4973038;28;20249;-81
2023/01/11 03:03:38;;;;;;;3.20;2.90;;;;;;;;;;4957224;28;20190;-82
2023/01/11 03:06:10;;;;;;;3.93;3.20;;;;;;;;;;4966654;28;20278;-81
2023/01/11 03:08:48;;;;;;;3.47;3.10;;;;;;;;;;4957275;28;20213;-84
2023/01/11 03:14:20;;;;;;;3.93;3.07;;;;;;;;;;4978294;28;20206;-84
2023/01/11 03:16:55;;;;;;;3.93;3.40;;;;;;;;;;4961292;28;20197;-84
2023/01/11 03:19:34;;;;;;;4.37;3.23;;;;;;;;;;4961168;28;20213;-84
2023/01/11 03:22:03;;;;;;;4.00;3.60;;;;;;;;;;4951414;28;20191;-85
2023/01/11 03:24:32;;;;;;;3.77;3.47;;;;;;;;;;4951393;28;20181;-85
2023/01/11 03:27:11;;;;;;;4.57;3.73;;;;;;;;;;4952661;28;20180;-85
2023/01/11 03:29:40;;;;;;;4.97;3.77;;;;;;;;;;4950824;28;20194;-85
2023/01/11 03:32:42;;;;;;;5.10;3.83;;;;;;;;;;4951313;28;20191;-78
2023/01/11 03:35:14;;;;;;;4.53;3.73;;;;;;;;;;4898440;29;20227;-79
2023/01/11 03:38:18;;;;;;;5.17;3.83;;;;;;;;;;4945149;29;20231;-79
2023/01/11 03:41:05;;;;;;;4.13;3.73;;;;;;;;;;4897380;29;20185;-79
2023/01/11 03:43:32;;;;;;;4.13;3.80;;;;;;;;;;4909205;29;20189;-79
2023/01/11 03:46:08;;;;;;;4.73;4.33;;;;;;;;;;4925520;29;20199;-79
2023/01/11 03:48:36;;;;;;;4.67;3.97;;;;;;;;;;4957842;29;20190;-79
2023/01/11 03:51:04;;;;;;;4.87;4.40;;;;;;;;;;4933181;29;20187;-79
2023/01/11 03:53:32;;;;;;;4.77;4.13;;;;;;;;;;4958589;29;20238;-84
2023/01/11 03:55:59;;;;;;;4.83;4.40;;;;;;;;;;4941148;29;20190;-84
2023/01/11 03:58:26;;;;;;;4.90;4.20;;;;;;;;;;4940850;29;20206;-84
2023/01/11 04:00:54;;;;;;;4.40;4.00;;;;;;;;;;4957655;28;20237;-84
2023/01/11 04:03:20;;;;;;;4.20;3.90;;;;;;;;;;4940418;29;20191;-85
2023/01/11 04:05:50;;;;;;;5.40;4.17;;;;;;;;;;4924970;29;20175;-85
2023/01/11 04:08:16;;;;;;;5.03;3.90;;;;;;;;;;4938689;29;20194;-84
2023/01/11 04:10:42;;;;;;;4.23;3.83;;;;;;;;;;4922204;29;20187;-84
2023/01/11 04:13:08;;;;;;;4.80;4.27;;;;;;;;;;4940626;29;20254;-79
2023/01/11 04:15:34;;;;;;;4.47;4.07;;;;;;;;;;4924986;29;20298;-79
2023/01/11 04:18:04;;;;;;;5.50;4.63;;;;;;;;;;4924811;29;20211;-79
2023/01/11 04:20:34;;;;;;;4.67;4.27;;;;;;;;;;4940190;29;20221;-79
2023/01/11 04:23:01;;;;;;;5.30;4.37;;;;;;;;;;4940290;29;20215;-79
2023/01/11 04:25:27;;;;;;;5.20;4.70;;;;;;;;;;4924702;29;20187;-79
2023/01/11 04:27:53;;;;;;;4.90;4.40;;;;;;;;;;4957516;29;20184;-79
2023/01/11 04:30:20;;;;;;;5.60;5.00;;;;;;;;;;4940548;29;20258;-79
2023/01/11 04:32:46;;;;;;;5.33;4.80;;;;;;;;;;4940339;29;20278;-79
2023/01/11 04:35:12;;;;;;;5.17;4.67;;;;;;;;;;4940567;29;20218;-79
2023/01/11 04:37:38;;;;;;;5.03;4.50;;;;;;;;;;4957106;28;20233;-79
2023/01/11 04:40:04;;;;;;;3.77;3.47;;;;;;;;;;4959344;28;20178;-79
2023/01/11 04:42:30;;;;;;;6.17;4.13;;;;;;;;;;4943800;28;20191;-79
2023/01/11 04:44:56;;;;;;;5.73;4.40;;;;;;;;;;4958653;28;20201;-79
2023/01/11 04:47:23;;;;;;;5.83;4.87;;;;;;;;;;4943762;28;20191;-79
2023/01/11 04:49:49;;;;;;;5.37;4.87;;;;;;;;;;4958607;28;20262;-79
2023/01/11 04:52:16;;;;;;;8.03;5.37;;;;;;;;;;4941789;28;20194;-77
2023/01/11 04:54:42;;;;;;;5.57;4.97;;;;;;;;;;4958935;28;20194;-77
2023/01/11 04:57:11;;;;;;;6.33;5.73;;;;;;;;;;4956695;28;20216;-78
2023/01/11 04:59:37;;;;;;;6.33;5.60;;;;;;;;;;4956854;28;20242;-78
2023/01/11 05:02:03;;;;;;;6.47;5.23;;;;;;;;;;4942604;28;20218;-80
2023/01/11 05:04:29;;;;;;;6.27;5.43;;;;;;;;;;4943425;28;20187;-80
2023/01/11 05:06:55;;;;;;;6.83;4.87;;;;;;;;;;4946515;28;20192;-80
2023/01/11 05:09:21;;;;;;;6.13;5.20;;;;;;;;;;4959328;28;20194;-80
2023/01/11 05:11:47;;;;;;;5.30;4.80;;;;;;;;;;4947578;28;20246;-78
2023/01/11 05:14:14;;;;;;;7.10;4.67;;;;;;;;;;4943388;28;20186;-78
2023/01/11 05:16:40;;;;;;;8.50;5.87;;;;;;;;;;4959156;28;20259;-78
2023/01/11 05:19:06;;;;;;;8.83;6.10;;;;;;;;;;4958724;28;20217;-78
2023/01/11 05:21:34;;;;;;;9.17;6.60;;;;;;;;;;4978652;28;20201;-78
2023/01/11 05:24:00;;;;;;;8.13;6.53;;;;;;;;;;4960421;28;20246;-78
2023/01/11 05:26:28;;;;;;;9.93;7.27;;;;;;;;;;4958719;28;20251;-78
2023/01/11 05:28:55;;;;;;;10.00;7.50;;;;;;;;;;4958142;28;20183;-78
2023/01/11 05:31:21;;;;;;;11.50;8.03;;;;;;;;;;4968510;28;20212;-78
2023/01/11 05:33:47;;;;;;;13.77;8.57;;;;;;;;;;4946933;28;20195;-78
2023/01/11 05:36:14;;;;;;;12.50;8.13;;;;;;;;;;4942872;28;20245;-79
2023/01/11 05:38:40;;;;;;;12.53;8.90;;;;;;;;;;4976113;28;20214;-79
2023/01/11 05:41:07;;;;;;;13.38;9.45;;;;;;;;;;4942102;28;20414;-79
2023/01/11 05:45:27;;;;;;;12.90;9.50;;;;;;;;;;4958598;28;20185;-79
2023/01/11 05:46:20;;;;;;;11.13;8.97;;;;;;;;;;4976186;28;20186;-79
2023/01/11 05:48:46;;;;;;;18.77;10.40;;;;;;;;;;4958893;28;20210;-79
2023/01/11 05:51:12;;;;;;;12.27;9.73;;;;;;;;;;4942998;28;20192;-79
2023/01/11 05:53:38;;;;;;;16.37;10.23;;;;;;;;;;4942704;28;20186;-79
2023/01/11 05:56:04;;;;;;;16.07;10.60;;;;;;;;;;4960852;28;20190;-79
2023/01/11 05:58:30;;;;;;;17.03;10.03;;;;;;;;;;4975625;28;20211;-79
2023/01/11 06:00:56;;;;;;;15.33;10.40;;;;;;;;;;4958070;28;20829;-80
2023/01/11 06:03:23;;;;;;;19.03;10.30;;;;;;;;;;4958452;28;20281;-79
2023/01/11 06:05:50;;;;;;;18.03;9.87;;;;;;;;;;4958665;28;20232;-79
2023/01/11 06:08:16;;;;;;;19.57;9.63;;;;;;;;;;4958734;28;20187;-80
2023/01/11 06:10:42;;;;;;;19.10;9.97;;;;;;;;;;4961800;28;20185;-80
2023/01/11 06:13:26;;;;;;;18.30;9.50;;;;;;;;;;4979426;28;20182;-80
2023/01/11 06:16:06;;;;;;;22.67;9.60;;;;;;;;;;4948635;28;20197;-80
2023/01/11 06:18:33;;;;;;;19.33;9.80;;;;;;;;;;4962027;28;20214;-79
2023/01/11 06:21:00;;;;;;;20.10;10.30;;;;;;;;;;4962156;28;20179;-80
2023/01/11 06:23:26;;;;;;;20.40;9.23;;;;;;;;;;4962053;28;20183;-79
2023/01/11 06:25:52;;;;;;;19.23;9.60;;;;;;;;;;4962172;28;20210;-80
2023/01/11 06:28:19;;;;;;;17.30;9.80;;;;;;;;;;4946388;28;20190;-84
2023/01/11 06:30:50;;;;;;;19.40;9.27;;;;;;;;;;4979031;28;20182;-84
2023/01/11 06:33:16;;;;;;;19.93;8.53;;;;;;;;;;4979188;28;20208;-84
2023/01/11 06:35:43;;;;;;;19.73;8.67;;;;;;;;;;4946005;28;20191;-84
2023/01/11 06:38:10;;;;;;;19.83;7.60;;;;;;;;;;4945449;28;20211;-84
2023/01/11 06:40:37;;;;;;;20.87;6.97;;;;;;;;;;4978071;28;20190;-84
2023/01/11 06:43:03;;;;;;;23.90;6.57;;;;;;;;;;4944968;28;20206;-80
2023/01/11 06:45:30;;;;;;;25.30;6.60;;;;;;;;;;4945111;28;20175;-79
2023/01/11 06:47:56;;;;;;;24.53;5.53;;;;;;;;;;4960908;28;20183;-79
2023/01/11 06:50:22;;;;;;;26.53;5.70;;;;;;;;;;4944824;28;20198;-80
2023/01/11 06:52:52;;;;;;;21.43;5.07;;;;;;;;;;4960767;28;20249;-80
2023/01/11 06:55:18;;;;;;;25.00;5.47;;;;;;;;;;4944658;28;20185;-80
2023/01/11 06:57:44;;;;;;;24.90;5.10;;;;;;;;;;4944434;28;20186;-79
2023/01/11 07:00:10;;;;;;;24.97;4.60;;;;;;;;;;4959836;28;20194;-81
2023/01/11 07:02:36;;;;;;;25.87;5.03;;;;;;;;;;4956972;29;20190;-81
2023/01/11 07:05:05;;;;;;;20.10;4.83;;;;;;;;;;4963496;28;20193;-81
2023/01/11 07:07:31;;;;;;;22.33;4.63;;;;;;;;;;4968011;28;20186;-81
2023/01/11 07:09:57;;;;;;;20.93;4.60;;;;;;;;;;4952591;28;20193;-81
2023/01/11 07:12:23;;;;;;;28.10;5.10;;;;;;;;;;4958319;28;20209;-81
2023/01/11 07:14:49;;;;;;;22.77;4.67;;;;;;;;;;4963435;28;20186;-81
2023/01/11 07:17:15;;;;;;;20.90;4.17;;;;;;;;;;4991318;28;20179;-81
2023/01/11 07:19:41;;;;;;;26.77;4.50;;;;;;;;;;4952853;28;20213;-81
2023/01/11 07:22:08;;;;;;;21.67;4.50;;;;;;;;;;4966130;28;20183;-81
2023/01/11 07:24:34;;;;;;;26.13;4.83;;;;;;;;;;4975859;28;20185;-81
2023/01/11 07:27:01;;;;;;;20.40;4.60;;;;;;;;;;4947481;28;20188;-81
2023/01/11 07:29:27;;;;;;;26.43;4.73;;;;;;;;;;4972242;28;20193;-81
2023/01/11 07:31:54;;;;;;;24.53;4.70;;;;;;;;;;4987298;28;20181;-81
2023/01/11 07:34:20;;;;;;;21.87;4.13;;;;;;;;;;4965320;28;20262;-84
2023/01/11 07:36:46;;;;;;;23.63;4.57;;;;;;;;;;4959616;28;20261;-84
2023/01/11 07:39:12;;;;;;;24.33;4.57;;;;;;;;;;4964521;28;20217;-84
2023/01/11 07:44:22;;;;;;;23.97;5.03;;;;;;;;;;4977208;28;20280;-84
2023/01/11 07:46:48;;;;;;;27.83;4.93;;;;;;;;;;4956723;28;20195;-84
2023/01/11 07:49:14;;;;;;;23.77;4.43;;;;;;;;;;4971056;28;20245;-84
2023/01/11 07:51:40;;;;;;;16.17;3.97;;;;;;;;;;4973317;28;20178;-81
2023/01/11 07:54:06;;;;;;;24.20;5.50;;;;;;;;;;4960554;28;20198;-81
2023/01/11 07:56:32;;;;;;;23.27;5.03;;;;;;;;;;4981734;28;20194;-81
2023/01/11 07:58:59;;;;;;;22.80;4.33;;;;;;;;;;4947230;28;20238;-81
2023/01/11 08:01:25;;;;;;;21.43;4.47;;;;;;;;;;4963596;28;20264;-81
2023/01/11 08:03:51;;;;;;;21.37;4.97;;;;;;;;;;4945709;28;20183;-81
2023/01/11 08:06:17;;;;;;;19.30;4.30;;;;;;;;;;4934127;28;20179;-81
2023/01/11 08:08:43;;;;;;;25.37;4.60;;;;;;;;;;4949282;28;20186;-79
2023/01/11 08:16:39;;;;;;;24.13;4.60;;;;;;;;;;4962823;28;20229;-79
2023/01/11 08:19:05;;;;;;;22.90;4.67;;;;;;;;;;4959932;28;20281;-79
2023/01/11 08:21:31;;;;;;;20.07;4.30;;;;;;;;;;4944184;28;20194;-79
2023/01/11 08:23:58;;;;;;;21.57;4.60;;;;;;;;;;4959984;28;20190;-80
2023/01/11 08:26:24;;;;;;;29.23;4.80;;;;;;;;;;4959784;28;20201;-79
2023/01/11 08:28:51;;;;;;;20.03;4.43;;;;;;;;;;4953491;28;20249;-80
2023/01/11 08:31:17;;;;;;;21.30;4.63;;;;;;;;;;4948144;28;20190;-80
2023/01/11 08:33:43;;;;;;;25.87;4.77;;;;;;;;;;4976498;28;20202;-80
2023/01/11 08:36:10;;;;;;;21.70;4.43;;;;;;;;;;4977570;28;20223;-79
2023/01/11 08:38:36;;;;;;;22.53;4.20;;;;;;;;;;4960757;28;20300;-80
2023/01/11 08:41:09;;;;;;;18.60;4.47;;;;;;;;;;4944217;28;20183;-81
2023/01/11 08:43:35;;;;;;;21.10;4.30;;;;;;;;;;4964055;28;20266;-81
2023/01/11 08:46:01;;;;;;;18.83;4.40;;;;;;;;;;4924720;29;20183;-81
2023/01/11 08:48:28;;;;;;;19.53;4.57;;;;;;;;;;4940560;29;20190;-81
2023/01/11 08:50:54;;;;;;;15.37;4.07;;;;;;;;;;4961823;23;20234;-80
2023/01/11 08:53:20;;;;;;;16.87;3.97;;;;;;;;;;4935313;28;20185;-80
2023/01/11 08:55:50;;;;;;;20.93;4.20;;;;;;;;;;4948303;28;20187;-80
2023/01/11 08:58:16;;;;;;;17.73;3.80;;;;;;;;;;4932376;28;20245;-81
2023/01/11 09:00:42;;;;;;;24.03;4.47;;;;;;;;;;4950646;28;20182;-81
2023/01/11 09:03:10;;;;;;;20.43;4.27;;;;;;;;;;4951070;28;20167;-81
2023/01/11 09:05:37;;;;;;;21.47;4.17;;;;;;;;;;4935122;28;20180;-81
2023/01/11 09:08:03;;;;;;;21.10;4.90;;;;;;;;;;4950747;28;20273;-81
2023/01/11 09:10:29;;;;;;;22.87;4.20;;;;;;;;;;4935130;28;20171;-81
2023/01/11 09:12:55;;;;;;;20.40;4.17;;;;;;;;;;4950966;28;20171;-81
2023/01/11 09:15:22;;;;;;;19.77;4.00;;;;;;;;;;4956130;28;20228;-79
2023/01/11 09:17:49;;;;;;;17.73;4.20;;;;;;;;;;4951909;28;20201;-79
2023/01/11 09:20:15;;;;;;;22.30;4.90;;;;;;;;;;4952805;28;20265;-80
2023/01/11 09:22:45;;;;;;;24.97;4.40;;;;;;;;;;4948949;28;20179;-79
2023/01/11 09:25:11;;;;;;;20.27;4.07;;;;;;;;;;4949066;28;20185;-79
2023/01/11 09:27:37;;;;;;;21.87;4.30;;;;;;;;;;4965171;28;20319;-79
2023/01/11 09:30:03;;;;;;;20.33;4.23;;;;;;;;;;4932728;28;20269;-81
2023/01/11 09:32:29;;;;;;;21.43;4.63;;;;;;;;;;4945635;28;20198;-81
2023/01/11 09:34:56;;;;;;;21.27;4.47;;;;;;;;;;4952453;28;20183;-81
2023/01/11 09:37:23;;;;;;;21.00;4.53;;;;;;;;;;4944859;28;20188;-81
2023/01/11 09:39:50;;;;;;;24.67;4.50;;;;;;;;;;4952942;28;20207;-81
2023/01/11 09:42:23;;;;;;;22.77;4.53;;;;;;;;;;4937289;28;20270;-81
2023/01/11 09:44:51;;;;;;;20.93;4.80;;;;;;;;;;4952432;28;20182;-81
2023/01/11 09:47:20;;;;;;;22.03;4.70;;;;;;;;;;4946911;28;20182;-79
2023/01/11 09:49:53;;;;;;;20.50;4.90;;;;;;;;;;4949839;28;20210;-79
2023/01/11 09:52:25;;;;;;;21.83;4.60;;;;;;;;;;4974381;28;20221;-78
2023/01/11 09:54:51;;;;;;;24.30;4.90;;;;;;;;;;4957934;28;20240;-78
2023/01/11 09:57:37;;;;;;;25.37;4.57;;;;;;;;;;4975486;28;20178;-78
2023/01/11 10:00:22;;;;;;;26.90;4.53;;;;;;;;;;4975370;28;20210;-78
2023/01/11 10:03:07;;;;;;;21.60;4.70;;;;;;;;;;4958688;28;20249;-78
2023/01/11 10:05:39;;;;;;;21.60;4.20;;;;;;;;;;4958246;28;20221;-83
2023/01/11 10:08:19;;;;;;;19.13;4.43;;;;;;;;;;4958795;28;20229;-82
2023/01/11 10:10:53;;;;;;;21.53;4.57;;;;;;;;;;4958429;28;20208;-83
2023/01/11 10:13:29;;;;;;;17.83;4.20;;;;;;;;;;4958706;28;20184;-83
2023/01/11 10:16:07;;;;;;;16.93;3.70;;;;;;;;;;4958922;28;21003;-83
2023/01/11 10:18:45;;;;;;;16.17;3.83;;;;;;;;;;4958715;28;20217;-83
2023/01/11 10:21:15;;;;;;;16.27;4.20;;;;;;;;;;4958782;28;20174;-80
2023/01/11 10:23:50;;;;;;;13.90;4.13;;;;;;;;;;4959449;28;20266;-80
2023/01/11 10:26:25;;;;;;;15.37;3.73;;;;;;;;;;4941247;28;20179;-79
2023/01/11 10:34:44;;;;;;;12.23;3.73;;;;;;;;;;4962338;28;20223;-80
2023/01/11 10:43:03;;;;;;;16.87;4.30;;;;;;;;;;4955997;29;20190;-79
2023/01/11 10:45:37;;;;;;;13.00;3.60;;;;;;;;;;4973041;28;20221;-79
2023/01/11 10:48:03;;;;;;;12.47;3.97;;;;;;;;;;4958389;28;20318;-79
2023/01/11 10:50:35;;;;;;;15.87;4.17;;;;;;;;;;4971301;28;20219;-79
2023/01/11 10:53:15;;;;;;;15.80;4.30;;;;;;;;;;4955678;28;20179;-79
2023/01/11 10:55:46;;;;;;;19.57;4.10;;;;;;;;;;4954646;28;20194;-79
2023/01/11 10:58:15;;;;;;;16.50;4.07;;;;;;;;;;4957800;28;20311;-80
2023/01/11 11:00:50;;;;;;;17.43;3.83;;;;;;;;;;4957692;28;20206;-79
2023/01/11 11:03:41;;;;;;;17.40;4.13;;;;;;;;;;4966908;28;20174;-80
2023/01/11 11:06:32;;;;;;;15.20;3.80;;;;;;;;;;4978129;28;20254;-80
2023/01/11 11:09:07;;;;;;;16.80;4.10;;;;;;;;;;4977253;28;20189;-79
2023/01/11 11:11:54;;;;;;;15.73;4.00;;;;;;;;;;4966294;28;20187;-83
2023/01/11 11:14:24;;;;;;;18.50;4.20;;;;;;;;;;4931030;28;20242;-84
2023/01/11 11:17:09;;;;;;;19.17;4.30;;;;;;;;;;4964026;28;20198;-83
2023/01/11 11:19:35;;;;;;;16.83;3.67;;;;;;;;;;4950815;28;20198;-83
2023/01/11 11:22:01;;;;;;;12.00;3.97;;;;;;;;;;4936646;29;20251;-84
2023/01/11 11:24:36;;;;;;;17.40;4.07;;;;;;;;;;4939564;28;20179;-83
2023/01/11 11:27:18;;;;;;;16.90;3.60;;;;;;;;;;4952475;28;20183;-80
2023/01/11 11:29:49;;;;;;;16.40;3.67;;;;;;;;;;4953593;28;20183;-80
2023/01/11 11:32:19;;;;;;;17.13;4.10;;;;;;;;;;4967682;28;20184;-80
2023/01/11 11:34:46;;;;;;;14.80;4.17;;;;;;;;;;4983762;28;20204;-82
2023/01/11 11:37:19;;;;;;;16.47;3.70;;;;;;;;;;4980837;28;20205;-80
2023/01/11 11:39:47;;;;;;;17.23;3.60;;;;;;;;;;4980452;28;20214;-80
2023/01/11 11:42:16;;;;;;;15.10;3.87;;;;;;;;;;4952978;28;20175;-80
2023/01/11 11:44:42;;;;;;;15.50;3.80;;;;;;;;;;4970071;28;20175;-79
2023/01/11 11:47:15;;;;;;;18.63;3.90;;;;;;;;;;4952408;28;20186;-79
2023/01/11 11:49:41;;;;;;;17.17;4.07;;;;;;;;;;4953591;28;20245;-79
2023/01/11 11:52:12;;;;;;;20.73;4.10;;;;;;;;;;4952331;28;20222;-79
2023/01/11 11:54:54;;;;;;;18.33;4.30;;;;;;;;;;4952235;28;20188;-79
2023/01/11 11:57:23;;;;;;;18.20;3.83;;;;;;;;;;4956741;28;20183;-79
2023/01/11 11:59:50;;;;;;;18.13;3.60;;;;;;;;;;4954528;28;20206;-79
2023/01/11 12:02:29;;;;;;;21.23;4.47;;;;;;;;;;4949626;28;20194;-79
2023/01/11 12:04:57;;;;;;;15.77;3.63;;;;;;;;;;4954457;28;20178;-79
2023/01/11 12:07:36;;;;;;;13.13;3.33;;;;;;;;;;4954054;28;20211;-79
2023/01/11 12:10:09;;;;;;;23.73;4.33;;;;;;;;;;4952575;28;20192;-79
2023/01/11 12:12:48;;;;;;;12.87;3.20;;;;;;;;;;4954172;28;20179;-79
2023/01/11 12:15:14;;;;;;;20.33;4.13;;;;;;;;;;4951470;28;20265;-78
2023/01/11 12:17:40;;;;;;;15.20;4.30;;;;;;;;;;4951729;28;20175;-80
2023/01/11 12:20:21;;;;;;;16.47;3.80;;;;;;;;;;4951436;28;20217;-80
2023/01/11 12:22:48;;;;;;;15.70;3.80;;;;;;;;;;4950243;28;20178;-80
2023/01/11 12:25:14;;;;;;;18.87;4.03;;;;;;;;;;4932066;28;20186;-80
2023/01/11 12:28:12;;;;;;;20.40;4.27;;;;;;;;;;4966690;28;20182;-80
2023/01/11 12:30:38;;;;;;;19.60;3.70;;;;;;;;;;4924866;28;20214;-79
2023/01/11 12:33:07;;;;;;;17.10;4.47;;;;;;;;;;4950866;28;20183;-78
2023/01/11 12:35:36;;;;;;;17.23;3.73;;;;;;;;;;4951411;28;20250;-79
2023/01/11 12:38:09;;;;;;;18.17;3.70;;;;;;;;;;4946599;29;20188;-79
2023/01/11 12:40:39;;;;;;;20.13;4.53;;;;;;;;;;4939983;29;20183;-79
2023/01/11 12:43:31;;;;;;;18.97;4.00;;;;;;;;;;4940039;29;20175;-79
2023/01/11 12:46:12;;;;;;;24.00;4.07;;;;;;;;;;4939993;28;20242;-78
2023/01/11 12:48:57;;;;;;;20.80;4.37;;;;;;;;;;4940055;29;20183;-78
2023/01/11 12:51:29;;;;;;;19.20;3.90;;;;;;;;;;4940028;29;20237;-78
2023/01/11 12:53:55;;;;;;;21.63;3.87;;;;;;;;;;4957089;29;20202;-78
2023/01/11 12:56:45;;;;;;;18.70;4.20;;;;;;;;;;4940023;29;20183;-78
2023/01/11 12:59:23;;;;;;;16.60;4.03;;;;;;;;;;4939948;29;20234;-78
2023/01/11 13:02:05;;;;;;;19.00;4.57;;;;;;;;;;4939064;29;20415;-78
2023/01/11 13:04:49;;;;;;;16.87;4.20;;;;;;;;;;4940321;29;20270;-78
2023/01/11 13:07:42;;;;;;;15.20;3.70;;;;;;;;;;4939962;29;20171;-79
2023/01/11 13:10:34;;;;;;;14.33;3.40;;;;;;;;;;4918207;29;20210;-79
2023/01/11 13:13:08;;;;;;;14.77;3.63;;;;;;;;;;4918474;29;20184;-79
2023/01/11 13:15:54;;;;;;;15.73;3.80;;;;;;;;;;4939608;29;20175;-79
2023/01/11 13:18:43;;;;;;;20.40;4.20;;;;;;;;;;4938740;29;20211;-78
2023/01/11 13:21:24;;;;;;;24.47;4.70;;;;;;;;;;4939480;29;20188;-78
2023/01/11 13:23:54;;;;;;;22.00;4.17;;;;;;;;;;4940286;29;20218;-78
2023/01/11 13:26:25;;;;;;;18.50;3.60;;;;;;;;;;4940307;29;20183;-79
2023/01/11 13:29:06;;;;;;;19.10;4.53;;;;;;;;;;4940055;29;20270;-79
2023/01/11 13:31:33;;;;;;;19.90;4.17;;;;;;;;;;4940441;29;20182;-78
2023/01/11 13:34:19;;;;;;;20.47;4.40;;;;;;;;;;4940158;29;20168;-79
2023/01/11 13:36:50;;;;;;;17.30;3.60;;;;;;;;;;4939607;29;20218;-79
2023/01/11 13:39:28;;;;;;;15.13;3.90;;;;;;;;;;4956559;29;20240;-79
2023/01/11 13:41:57;;;;;;;20.93;4.37;;;;;;;;;;4939259;29;20186;-79
2023/01/11 13:44:26;;;;;;;20.17;4.13;;;;;;;;;;4956524;28;20250;-79
2023/01/11 13:47:04;;;;;;;16.50;4.17;;;;;;;;;;4939297;29;20180;-79
2023/01/11 13:49:45;;;;;;;24.20;4.67;;;;;;;;;;4939615;29;20179;-79
2023/01/11 13:52:13;;;;;;;15.10;3.57;;;;;;;;;;4939304;29;20289;-79
2023/01/11 13:54:50;;;;;;;23.70;4.47;;;;;;;;;;4939441;29;20215;-79
2023/01/11 13:57:24;;;;;;;15.60;3.70;;;;;;;;;;4939452;29;20183;-80
2023/01/11 13:59:52;;;;;;;19.27;4.07;;;;;;;;;;4939190;29;20215;-80
2023/01/11 14:02:24;;;;;;;19.70;4.00;;;;;;;;;;4939285;29;20214;-80
2023/01/11 14:04:58;;;;;;;18.77;3.80;;;;;;;;;;4939379;29;20211;-80
2023/01/11 14:07:43;;;;;;;15.23;3.90;;;;;;;;;;4956328;29;20179;-80
2023/01/11 14:10:16;;;;;;;12.93;3.77;;;;;;;;;;4939264;29;20278;-80
2023/01/11 14:12:57;;;;;;;17.90;3.97;;;;;;;;;;4939261;29;20184;-80
2023/01/11 14:15:42;;;;;;;16.67;3.90;;;;;;;;;;4939515;28;20291;-80
2023/01/11 14:18:11;;;;;;;20.50;3.77;;;;;;;;;;4939425;29;20176;-80
2023/01/11 14:20:43;;;;;;;18.17;4.13;;;;;;;;;;4939466;29;20176;-80
2023/01/11 14:23:10;;;;;;;14.67;3.73;;;;;;;;;;4939450;29;20191;-80
2023/01/11 14:25:41;;;;;;;15.70;3.63;;;;;;;;;;4939094;29;20270;-80
2023/01/11 14:28:14;;;;;;;21.73;4.23;;;;;;;;;;4938922;29;20199;-80
2023/01/11 14:30:40;;;;;;;23.57;4.47;;;;;;;;;;4940564;29;20183;-83
2023/01/11 14:33:19;;;;;;;21.27;4.80;;;;;;;;;;4965636;28;20181;-83
2023/01/11 14:35:55;;;;;;;16.03;4.13;;;;;;;;;;4962719;28;20273;-82
2023/01/11 14:38:20;;;;;;;21.83;4.37;;;;;;;;;;4989497;28;20227;-84
2023/01/11 14:40:46;;;;;;;22.73;4.60;;;;;;;;;;4972409;28;20183;-83
2023/01/11 14:43:28;;;;;;;17.57;4.37;;;;;;;;;;4986531;28;20238;-83
2023/01/11 14:46:13;;;;;;;23.77;4.27;;;;;;;;;;4965835;28;20189;-83
2023/01/11 14:48:45;;;;;;;15.83;4.50;;;;;;;;;;4962069;28;20186;-83
2023/01/11 14:51:11;;;;;;;20.33;3.97;;;;;;;;;;4961706;28;20373;-83
2023/01/11 14:53:40;;;;;;;18.17;4.33;;;;;;;;;;4961568;28;20246;-84
2023/01/11 14:56:26;;;;;;;18.73;4.27;;;;;;;;;;4961871;28;20183;-83
2023/01/11 14:59:05;;;;;;;25.43;4.37;;;;;;;;;;4961522;28;20300;-84
2023/01/11 15:01:58;;;;;;;19.90;4.63;;;;;;;;;;4961567;28;20182;-83
2023/01/11 15:04:24;;;;;;;21.03;4.50;;;;;;;;;;4947071;28;20190;-83
2023/01/11 15:06:54;;;;;;;18.20;4.30;;;;;;;;;;4962269;28;20230;-83
2023/01/11 15:09:39;;;;;;;21.08;4.93;;;;;;;;;;4944686;28;20446;-83
2023/01/11 15:12:16;;;;;;;24.03;4.80;;;;;;;;;;4961559;28;20190;-83
2023/01/11 15:14:49;;;;;;;15.53;4.37;;;;;;;;;;4961709;28;20182;-82
2023/01/11 15:20:09;;;;;;;22.23;4.83;;;;;;;;;;4979040;28;20272;-79
2023/01/11 15:22:35;;;;;;;22.77;4.33;;;;;;;;;;4963245;28;20183;-79
2023/01/11 15:25:06;;;;;;;21.97;4.40;;;;;;;;;;4963355;28;20163;-79
2023/01/11 15:27:34;;;;;;;12.50;3.90;;;;;;;;;;4962834;28;20189;-80
2023/01/11 15:30:00;;;;;;;18.10;4.20;;;;;;;;;;4961869;28;20179;-79
2023/01/11 15:32:31;;;;;;;16.57;3.90;;;;;;;;;;4945461;28;20194;-79